Time;durP1;ratioP1;P1;durP2;ratioP2;P2;SDS_P1;SDS_P2;PMS_P1;PMS_P2;Temp;Humidity;BMP_temperature;BMP_pressure;BME280_temperature;BME280_humidity;BME280_pressure;Samples;Min_cycle;Max_cycle;Signal;HPM_P1;HPM_P2
2024/01/05 08:13:45;;;;;;;2.90;1.00;;;22.70;63.10;;;;;;6227216;22;20775;-93
2024/01/05 08:16:11;;;;;;;1.30;0.90;;;22.60;63.30;;;;;;6214772;23;20390;-87
2024/01/05 08:18:38;;;;;;;3.63;1.10;;;22.70;63.50;;;;;;6215879;22;20537;-87
2024/01/05 08:21:05;;;;;;;1.47;0.90;;;22.70;63.50;;;;;;6216287;23;20394;-95
2024/01/05 08:23:33;;;;;;;1.20;0.80;;;22.70;63.50;;;;;;6217477;23;20398;-91
2024/01/05 08:26:00;;;;;;;2.43;1.07;;;22.70;63.60;;;;;;6217183;23;20461;-89
2024/01/05 08:28:27;;;;;;;2.00;1.00;;;22.80;63.70;;;;;;6217403;23;20541;-94
2024/01/05 08:30:55;;;;;;;3.17;1.33;;;22.70;63.50;;;;;;6217700;23;20406;-92
2024/01/05 08:33:22;;;;;;;2.33;1.00;;;22.80;63.70;;;;;;6222050;23;20484;-91
2024/01/05 08:35:49;;;;;;;1.20;0.80;;;22.70;63.60;;;;;;6218740;23;20489;-87
2024/01/05 08:38:19;;;;;;;1.60;0.90;;;22.70;63.60;;;;;;6216823;23;20429;-92
2024/01/05 08:40:46;;;;;;;2.30;0.83;;;22.70;63.60;;;;;;6216018;23;20502;-87
2024/01/05 08:43:13;;;;;;;1.80;1.20;;;22.70;63.50;;;;;;6215695;23;20406;-87
2024/01/05 08:45:39;;;;;;;2.63;0.97;;;22.70;63.40;;;;;;6215798;23;20425;-87
2024/01/05 08:48:08;;;;;;;1.20;0.80;;;22.70;63.10;;;;;;6214525;23;20528;-88
2024/01/05 08:50:35;;;;;;;1.30;0.90;;;22.70;63.30;;;;;;6213110;23;20413;-87
2024/01/05 08:53:02;;;;;;;1.30;0.93;;;22.70;63.40;;;;;;6212984;23;20487;-87
2024/01/05 08:55:29;;;;;;;1.60;0.80;;;22.70;63.30;;;;;;6213262;23;20432;-87
2024/01/05 08:57:56;;;;;;;1.60;0.87;;;22.70;63.30;;;;;;6212733;23;20409;-87
2024/01/05 09:00:23;;;;;;;1.20;1.00;;;22.80;63.50;;;;;;6214504;23;20460;-87
2024/01/05 09:02:50;;;;;;;1.60;0.93;;;22.70;63.30;;;;;;6215244;23;20792;-87
2024/01/05 09:05:19;;;;;;;5.83;0.90;;;22.70;63.30;;;;;;6217321;23;20413;-87
2024/01/05 09:07:46;;;;;;;1.20;0.87;;;22.70;63.30;;;;;;6217544;23;20433;-87
2024/01/05 09:10:12;;;;;;;1.20;0.80;;;22.70;63.30;;;;;;6217511;23;20444;-87
2024/01/05 09:12:39;;;;;;;1.40;0.90;;;22.70;63.20;;;;;;6217828;23;20417;-87
2024/01/05 09:15:07;;;;;;;1.20;0.80;;;22.70;63.20;;;;;;6217730;23;20489;-86
2024/01/05 09:17:34;;;;;;;4.37;1.40;;;22.70;63.20;;;;;;6217379;23;20434;-87
2024/01/05 09:20:03;;;;;;;1.30;1.10;;;22.70;63.20;;;;;;6241410;23;20748;-87
2024/01/05 09:22:31;;;;;;;1.20;0.80;;;22.70;63.20;;;;;;6247744;23;20451;-87
2024/01/05 09:24:58;;;;;;;1.70;0.90;;;22.70;63.20;;;;;;6247792;23;20712;-87
2024/01/05 09:27:24;;;;;;;1.70;0.90;;;22.70;63.30;;;;;;6247189;23;20476;-87
2024/01/05 09:29:51;;;;;;;1.80;0.80;;;22.70;63.20;;;;;;6247610;23;20480;-87
2024/01/05 09:32:18;;;;;;;1.37;1.10;;;22.70;63.20;;;;;;6247270;23;20397;-87
2024/01/05 09:34:45;;;;;;;1.30;0.87;;;22.70;63.20;;;;;;6247796;23;20405;-87
2024/01/05 09:37:12;;;;;;;1.80;0.90;;;22.70;63.20;;;;;;6247626;23;20397;-87
2024/01/05 09:39:40;;;;;;;1.23;0.80;;;22.70;63.10;;;;;;6247510;23;20916;-87
2024/01/05 09:42:08;;;;;;;1.40;0.83;;;22.70;63.10;;;;;;6247786;23;20394;-86
2024/01/05 09:44:36;;;;;;;1.50;0.90;;;22.70;63.10;;;;;;6247606;23;20766;-87
2024/01/05 09:47:03;;;;;;;1.30;0.90;;;22.70;63.00;;;;;;6247182;23;20397;-86
2024/01/05 09:49:34;;;;;;;1.40;0.83;;;22.80;63.20;;;;;;6247290;23;20436;-87
2024/01/05 09:52:02;;;;;;;1.87;0.90;;;22.80;63.20;;;;;;6247548;23;20389;-87
2024/01/05 09:54:30;;;;;;;1.60;1.17;;;22.80;63.00;;;;;;6247103;23;20448;-87
2024/01/05 09:56:59;;;;;;;1.73;0.80;;;22.80;62.90;;;;;;6247209;23;20726;-87
2024/01/05 09:59:26;;;;;;;1.27;0.83;;;22.80;63.10;;;;;;6247432;23;20487;-86
2024/01/05 10:01:55;;;;;;;1.40;0.90;;;22.80;63.00;;;;;;6247408;23;20431;-86
2024/01/05 10:04:22;;;;;;;2.23;1.00;;;22.80;62.90;;;;;;6247494;23;20424;-87
2024/01/05 10:07:01;;;;;;;1.60;1.10;;;22.70;63.00;;;;;;6247414;23;20475;-87
2024/01/05 10:09:30;;;;;;;1.20;0.90;;;22.80;62.90;;;;;;6246965;23;20460;-86
2024/01/05 10:11:59;;;;;;;1.10;0.70;;;22.80;63.00;;;;;;6247166;23;20397;-87
2024/01/05 10:14:26;;;;;;;1.20;0.80;;;22.80;63.00;;;;;;6246982;23;20491;-87
2024/01/05 10:17:08;;;;;;;1.20;0.90;;;22.80;62.90;;;;;;6246784;23;20405;-87
2024/01/05 10:19:35;;;;;;;1.50;1.00;;;22.80;62.80;;;;;;6246644;23;20484;-87
2024/01/05 10:22:10;;;;;;;1.57;0.90;;;22.80;62.80;;;;;;6247152;23;20397;-87
2024/01/05 10:24:37;;;;;;;1.53;0.93;;;22.80;62.60;;;;;;6246769;23;20389;-87
2024/01/05 10:27:06;;;;;;;1.40;0.97;;;22.80;62.60;;;;;;6247141;23;20401;-87
2024/01/05 10:29:35;;;;;;;1.20;0.87;;;22.80;62.60;;;;;;6246481;23;20532;-90
2024/01/05 10:32:14;;;;;;;1.60;0.80;;;22.80;62.70;;;;;;6247103;23;20495;-86
2024/01/05 10:34:42;;;;;;;1.37;1.00;;;22.80;62.60;;;;;;6247102;23;20416;-86
2024/01/05 10:37:09;;;;;;;1.30;0.90;;;22.80;62.80;;;;;;6247019;23;20768;-87
2024/01/05 10:39:36;;;;;;;1.60;0.93;;;22.80;62.70;;;;;;6246783;23;20418;-86
2024/01/05 10:42:18;;;;;;;1.83;1.23;;;22.90;62.90;;;;;;6246966;23;20393;-87
2024/01/05 10:44:46;;;;;;;1.97;1.00;;;22.80;62.60;;;;;;6246527;23;20463;-87
2024/01/05 10:47:14;;;;;;;2.43;1.00;;;22.80;62.60;;;;;;6246690;23;20451;-87
2024/01/05 10:49:42;;;;;;;1.60;1.00;;;22.80;62.70;;;;;;6246459;23;20499;-87
2024/01/05 10:52:09;;;;;;;1.87;1.00;;;22.80;62.60;;;;;;6246985;23;20409;-89
2024/01/05 10:54:36;;;;;;;1.10;0.70;;;22.90;62.60;;;;;;6246827;23;20409;-87
2024/01/05 10:57:05;;;;;;;1.10;0.70;;;22.80;62.60;;;;;;6246502;23;20401;-87
2024/01/05 10:59:34;;;;;;;1.10;0.70;;;22.80;62.50;;;;;;6246772;23;20424;-86
2024/01/05 11:02:02;;;;;;;1.30;0.80;;;22.90;62.50;;;;;;6246264;23;20435;-87
2024/01/05 11:04:30;;;;;;;1.40;0.83;;;22.80;62.20;;;;;;6246735;23;20464;-87
2024/01/05 11:06:58;;;;;;;1.27;0.70;;;22.80;62.50;;;;;;6246711;23;20402;-87
2024/01/05 11:09:32;;;;;;;1.20;0.80;;;22.80;62.00;;;;;;6246253;23;20448;-87
2024/01/05 11:12:09;;;;;;;1.20;0.80;;;22.90;62.30;;;;;;6246996;23;20425;-87
2024/01/05 11:14:57;;;;;;;1.30;0.90;;;22.80;62.30;;;;;;6247389;23;20397;-87
2024/01/05 11:18:05;;;;;;;1.53;0.87;;;22.80;62.40;;;;;;6246655;23;20472;-87
2024/01/05 11:20:51;;;;;;;1.30;0.70;;;22.80;62.40;;;;;;6241770;23;20488;-86
2024/01/05 11:23:20;;;;;;;1.43;0.80;;;22.80;62.40;;;;;;6246055;23;20396;-89
2024/01/05 11:25:48;;;;;;;1.40;0.90;;;22.80;62.30;;;;;;6246482;23;20408;-86
2024/01/05 11:28:34;;;;;;;1.37;0.80;;;22.80;62.00;;;;;;6245879;23;20510;-87
2024/01/05 11:31:02;;;;;;;1.67;0.97;;;22.80;62.00;;;;;;6246545;23;20427;-86
2024/01/05 11:33:45;;;;;;;1.30;0.77;;;22.80;62.00;;;;;;6246208;23;20884;-86
2024/01/05 11:36:12;;;;;;;1.20;0.80;;;22.90;62.10;;;;;;6240156;23;20735;-85
2024/01/05 11:38:44;;;;;;;1.80;0.87;;;22.80;60.60;;;;;;6245193;23;20436;-85
2024/01/05 11:41:18;;;;;;;1.10;0.70;;;22.80;59.90;;;;;;6246282;23;20389;-85
2024/01/05 11:43:45;;;;;;;1.10;0.60;;;22.70;59.80;;;;;;6246083;23;20400;-85
2024/01/05 11:49:06;;;;;;;1.10;0.73;;;22.60;60.00;;;;;;6278616;22;20611;-96
2024/01/05 15:11:03;;;;;;;1.40;0.90;;;22.80;61.60;;;;;;6211675;22;20459;-93
2024/01/05 15:36:32;;;;;;;1.80;1.00;;;22.80;61.30;;;;;;6182729;22;20449;-94
2024/01/05 15:38:59;;;;;;;1.60;0.80;;;22.70;61.10;;;;;;6226218;23;20411;-83
2024/01/05 15:41:27;;;;;;;1.10;0.70;;;22.80;61.40;;;;;;6246460;23;20480;-91
2024/01/05 15:43:55;;;;;;;2.47;0.90;;;22.80;61.30;;;;;;6246671;23;20412;-88
2024/01/05 15:46:22;;;;;;;1.30;0.80;;;22.80;61.40;;;;;;6250332;23;20884;-89
2024/01/05 15:48:52;;;;;;;2.90;1.00;;;22.80;61.40;;;;;;6254543;23;20528;-87
2024/01/05 15:51:19;;;;;;;1.43;0.70;;;22.80;60.80;;;;;;6254167;23;20942;-84
2024/01/05 15:53:47;;;;;;;2.30;0.87;;;22.80;59.80;;;;;;6253377;23;20409;-87
2024/01/05 15:56:17;;;;;;;1.37;0.77;;;22.80;60.60;;;;;;6249963;23;20402;-87
2024/01/05 15:58:46;;;;;;;3.10;1.17;;;22.80;61.10;;;;;;6247501;23;20877;-88
2024/01/05 16:01:12;;;;;;;1.30;0.77;;;22.80;61.40;;;;;;6246104;23;20406;-88
2024/01/05 16:03:42;;;;;;;1.63;0.90;;;22.80;61.40;;;;;;6252392;23;20408;-87
2024/01/05 16:06:10;;;;;;;6.07;0.90;;;22.80;61.60;;;;;;6246059;23;20500;-89
2024/01/05 16:08:38;;;;;;;3.70;1.10;;;22.80;61.80;;;;;;6246230;23;20953;-88
2024/01/05 16:11:05;;;;;;;1.93;0.70;;;22.80;61.60;;;;;;6246013;23;20401;-88
2024/01/05 16:13:33;;;;;;;1.73;0.80;;;22.80;61.80;;;;;;6246559;23;20892;-88
2024/01/05 16:16:12;;;;;;;1.30;0.70;;;22.80;61.80;;;;;;6246295;23;20401;-88
2024/01/05 16:18:38;;;;;;;2.93;1.00;;;22.80;61.80;;;;;;6246404;23;20399;-89
2024/01/05 16:21:06;;;;;;;1.40;0.90;;;22.90;61.90;;;;;;6246447;23;20405;-88
2024/01/05 16:23:32;;;;;;;1.20;0.80;;;22.80;61.70;;;;;;6246307;23;20419;-88
2024/01/05 16:25:59;;;;;;;1.30;0.80;;;22.80;61.90;;;;;;6246130;23;20488;-88
2024/01/05 16:28:26;;;;;;;1.43;1.20;;;22.80;61.90;;;;;;6246316;23;20445;-89
2024/01/05 16:30:54;;;;;;;1.63;1.00;;;22.80;61.90;;;;;;6246341;23;20401;-88
2024/01/05 16:33:21;;;;;;;1.87;1.00;;;22.80;61.90;;;;;;6246471;23;20408;-87
2024/01/05 16:35:52;;;;;;;2.63;0.90;;;22.80;61.90;;;;;;6215792;23;20939;-88
2024/01/05 16:38:19;;;;;;;1.40;0.80;;;22.90;62.00;;;;;;6242190;23;20911;-86
2024/01/05 16:40:45;;;;;;;1.40;0.90;;;22.90;61.40;;;;;;6245888;23;20402;-87
2024/01/05 16:43:12;;;;;;;1.30;0.93;;;22.90;61.70;;;;;;6246326;23;20402;-87
2024/01/05 16:45:39;;;;;;;3.60;0.90;;;22.90;61.80;;;;;;6246217;23;20407;-86
2024/01/05 16:48:07;;;;;;;1.70;0.87;;;22.90;61.80;;;;;;6246372;23;20405;-88
2024/01/05 16:50:35;;;;;;;1.57;0.90;;;22.90;61.90;;;;;;6245594;23;20448;-87
2024/01/05 16:53:02;;;;;;;1.13;0.80;;;22.90;61.80;;;;;;6245949;23;20397;-87
2024/01/05 16:55:28;;;;;;;2.50;1.00;;;22.90;61.90;;;;;;6246207;23;20412;-87
2024/01/05 17:01:17;;;;;;;1.87;0.90;;;22.90;61.90;;;;;;6246276;23;20365;-86
2024/01/05 17:03:46;;;;;;;2.60;1.00;;;22.90;61.90;;;;;;6250917;23;20398;-86
2024/01/05 17:06:13;;;;;;;1.50;0.90;;;22.90;62.00;;;;;;6248088;23;20461;-86
2024/01/05 17:08:40;;;;;;;3.63;0.90;;;22.90;62.10;;;;;;6246043;23;20436;-86
2024/01/05 17:11:07;;;;;;;1.30;0.80;;;22.90;62.00;;;;;;6245925;23;20488;-86
2024/01/05 17:13:34;;;;;;;3.43;1.00;;;22.90;62.10;;;;;;6245179;23;20888;-87
2024/01/05 17:16:01;;;;;;;1.87;0.83;;;22.90;62.00;;;;;;6243978;23;20401;-87
2024/01/05 17:18:27;;;;;;;1.40;0.83;;;22.90;62.00;;;;;;6245904;23;20400;-87
2024/01/05 17:20:55;;;;;;;1.43;0.80;;;23.00;62.20;;;;;;6246923;23;20395;-87
2024/01/05 17:23:22;;;;;;;1.20;0.83;;;23.00;62.10;;;;;;6247553;23;20392;-87
2024/01/05 17:25:49;;;;;;;1.50;0.77;;;22.90;62.00;;;;;;6247526;23;20397;-90
2024/01/05 17:28:16;;;;;;;1.30;0.80;;;23.00;62.20;;;;;;6247712;23;20412;-87
2024/01/05 17:30:43;;;;;;;1.40;0.90;;;23.00;62.00;;;;;;6247779;23;20451;-91
2024/01/05 17:33:09;;;;;;;1.60;0.90;;;23.00;61.90;;;;;;6247338;23;20930;-87
2024/01/05 17:35:36;;;;;;;1.20;0.90;;;23.00;62.00;;;;;;6247897;23;20453;-88
2024/01/05 17:38:05;;;;;;;1.20;0.93;;;23.00;62.00;;;;;;6247106;23;20443;-89
2024/01/05 17:40:31;;;;;;;1.30;0.93;;;23.00;61.50;;;;;;6246808;23;20415;-89
2024/01/05 17:42:58;;;;;;;2.33;0.80;;;23.00;61.80;;;;;;6247101;23;20491;-88
2024/01/05 17:45:25;;;;;;;1.20;0.80;;;23.00;61.90;;;;;;6247815;23;20474;-89
2024/01/05 17:47:52;;;;;;;1.70;1.00;;;22.90;61.80;;;;;;6246659;23;20803;-89
2024/01/05 17:50:21;;;;;;;1.10;0.73;;;22.90;61.70;;;;;;6246640;23;20453;-88
2024/01/05 17:52:48;;;;;;;1.20;0.80;;;23.00;61.70;;;;;;6246595;23;20409;-88
2024/01/05 17:55:16;;;;;;;1.10;0.70;;;23.00;61.70;;;;;;6246065;23;20405;-88
2024/01/05 17:57:44;;;;;;;1.20;0.80;;;23.10;61.80;;;;;;6247490;23;20405;-91
2024/01/05 18:00:12;;;;;;;1.20;0.80;;;23.00;61.60;;;;;;6250394;23;20840;-91
2024/01/05 18:02:39;;;;;;;1.60;1.10;;;23.00;61.60;;;;;;6248988;23;20401;-91
2024/01/05 18:05:07;;;;;;;1.30;0.77;;;23.00;61.40;;;;;;6251698;23;20504;-91
2024/01/05 18:07:34;;;;;;;1.33;0.80;;;23.00;61.40;;;;;;6246887;23;20412;-91
2024/01/05 18:10:00;;;;;;;1.63;0.77;;;23.00;61.40;;;;;;6247008;23;20483;-91
2024/01/05 18:12:29;;;;;;;1.10;0.80;;;23.00;61.40;;;;;;6247658;23;20433;-91
2024/01/05 18:14:55;;;;;;;1.30;0.90;;;23.00;61.70;;;;;;6247111;23;20700;-91
2024/01/05 18:17:22;;;;;;;1.67;0.80;;;23.00;61.60;;;;;;6249244;23;20409;-92
2024/01/05 18:19:50;;;;;;;1.50;0.80;;;23.00;61.50;;;;;;6247912;23;20982;-91
2024/01/05 18:22:17;;;;;;;1.20;0.80;;;23.00;61.70;;;;;;6248275;23;20409;-92
2024/01/05 18:24:44;;;;;;;1.10;0.70;;;23.00;61.70;;;;;;6248037;23;20440;-91
2024/01/05 18:27:13;;;;;;;1.20;0.80;;;23.00;61.60;;;;;;6249043;23;20484;-91
2024/01/05 18:29:41;;;;;;;2.00;0.93;;;23.00;61.60;;;;;;6248224;23;20451;-92
2024/01/05 18:32:08;;;;;;;1.13;0.77;;;23.10;61.70;;;;;;6247648;23;20405;-91
2024/01/05 18:34:36;;;;;;;3.30;0.90;;;23.10;61.80;;;;;;6247617;23;20409;-91
2024/01/05 18:37:11;;;;;;;1.23;0.80;;;23.00;61.80;;;;;;6251603;23;20440;-93
2024/01/05 18:39:38;;;;;;;1.70;0.93;;;23.00;61.70;;;;;;6249266;23;20407;-91
2024/01/05 18:42:05;;;;;;;1.70;0.80;;;23.10;61.70;;;;;;6246581;23;20409;-91
2024/01/05 18:44:32;;;;;;;1.30;0.93;;;23.00;61.90;;;;;;6248434;23;20467;-91
2024/01/05 18:47:00;;;;;;;1.20;0.80;;;23.00;61.70;;;;;;6248380;23;20405;-91
2024/01/05 18:49:27;;;;;;;1.10;0.80;;;23.00;61.70;;;;;;6246639;23;20443;-91
2024/01/05 18:51:55;;;;;;;1.40;1.00;;;23.00;61.80;;;;;;6248922;23;20492;-90
2024/01/05 18:54:21;;;;;;;1.20;0.90;;;22.90;61.60;;;;;;6247573;23;20405;-91
2024/01/05 18:56:48;;;;;;;1.40;1.00;;;22.90;61.80;;;;;;6246974;23;20805;-91
2024/01/05 18:59:15;;;;;;;1.40;0.77;;;22.90;61.80;;;;;;6246781;23;20419;-91
2024/01/05 19:01:43;;;;;;;1.30;0.83;;;22.90;62.60;;;;;;6248702;23;20724;-91
2024/01/05 19:04:11;;;;;;;1.30;0.90;;;23.00;61.90;;;;;;6248605;23;20415;-91
2024/01/05 19:06:40;;;;;;;1.20;0.80;;;23.00;61.90;;;;;;6246139;23;20459;-91
2024/01/05 19:09:07;;;;;;;1.33;1.00;;;23.00;61.80;;;;;;6247120;23;20408;-91
2024/01/05 19:11:36;;;;;;;1.17;0.70;;;22.90;61.70;;;;;;6247048;23;20404;-91
2024/01/05 19:14:05;;;;;;;3.20;0.87;;;23.00;61.90;;;;;;6246033;23;20415;-90
2024/01/05 19:16:31;;;;;;;1.30;0.80;;;22.90;61.70;;;;;;6248252;23;20413;-91
2024/01/05 19:18:59;;;;;;;1.50;0.80;;;22.90;61.70;;;;;;6246871;23;20773;-91
2024/01/05 19:21:27;;;;;;;1.20;1.00;;;23.00;61.80;;;;;;6249324;23;20401;-90
2024/01/05 19:23:54;;;;;;;1.10;0.80;;;22.90;61.60;;;;;;6247931;23;20488;-91
2024/01/05 19:26:21;;;;;;;1.10;0.80;;;22.90;61.70;;;;;;6247055;23;20399;-90
2024/01/05 19:28:48;;;;;;;1.30;0.80;;;22.90;61.60;;;;;;6246620;23;20510;-91
2024/01/05 19:31:14;;;;;;;2.37;0.93;;;23.00;61.70;;;;;;6246973;23;20480;-90
2024/01/05 19:33:41;;;;;;;1.43;0.90;;;22.90;61.50;;;;;;6247219;23;20409;-91
2024/01/05 19:36:12;;;;;;;1.40;1.17;;;23.00;61.70;;;;;;6246829;23;20432;-91
2024/01/05 19:38:41;;;;;;;1.73;0.77;;;22.90;61.60;;;;;;6249815;23;20975;-91
2024/01/05 19:41:09;;;;;;;1.23;0.80;;;22.90;62.40;;;;;;6246667;23;20432;-90
2024/01/05 19:43:37;;;;;;;1.73;0.80;;;23.00;61.80;;;;;;6246452;23;20424;-91
2024/01/05 19:46:05;;;;;;;1.30;1.00;;;23.00;61.70;;;;;;6247337;23;20412;-91
2024/01/05 19:48:32;;;;;;;1.23;0.93;;;22.90;61.60;;;;;;6246769;23;20400;-91
2024/01/05 19:50:59;;;;;;;1.20;0.80;;;22.90;61.70;;;;;;6247493;23;20444;-91
2024/01/05 19:53:26;;;;;;;1.90;1.00;;;23.00;61.80;;;;;;6247420;23;20916;-91
2024/01/05 19:55:54;;;;;;;1.53;0.90;;;22.90;61.60;;;;;;6246379;23;20477;-91
2024/01/05 19:58:21;;;;;;;1.47;0.90;;;23.00;61.80;;;;;;6248050;23;20411;-90
2024/01/05 20:00:48;;;;;;;1.40;0.80;;;22.90;61.50;;;;;;6246111;23;20405;-91
2024/01/05 20:03:15;;;;;;;1.30;0.93;;;22.90;61.50;;;;;;6247032;23;20732;-91
2024/01/05 20:05:43;;;;;;;1.20;0.80;;;23.00;61.70;;;;;;6247220;23;20821;-91
2024/01/05 20:08:10;;;;;;;1.20;0.87;;;23.00;61.70;;;;;;6248392;23;20401;-91
2024/01/05 20:10:38;;;;;;;1.30;0.90;;;22.90;62.10;;;;;;6246124;23;20472;-91
2024/01/05 20:13:08;;;;;;;1.40;1.07;;;22.90;61.50;;;;;;6246600;23;20412;-90
2024/01/05 20:15:36;;;;;;;1.33;0.90;;;22.90;61.40;;;;;;6245837;23;20408;-90
2024/01/05 20:18:06;;;;;;;1.33;1.00;;;23.00;61.70;;;;;;6246512;23;20413;-92
2024/01/05 20:20:32;;;;;;;1.30;1.10;;;22.90;61.60;;;;;;6248567;23;20492;-91
2024/01/05 20:23:05;;;;;;;1.20;0.90;;;22.90;61.60;;;;;;6246759;23;20899;-89
2024/01/05 20:25:31;;;;;;;1.20;1.00;;;22.90;61.70;;;;;;6249156;23;20389;-91
2024/01/05 20:27:58;;;;;;;1.20;0.90;;;22.90;61.40;;;;;;6261155;22;20404;-90
2024/01/05 20:30:31;;;;;;;1.20;0.90;;;22.90;61.50;;;;;;6258314;22;21026;-86
2024/01/05 20:32:58;;;;;;;1.20;0.80;;;23.00;61.40;;;;;;6268282;22;20459;-88
2024/01/05 20:35:34;;;;;;;1.20;0.90;;;23.00;61.40;;;;;;6265467;22;20413;-88
2024/01/05 20:38:02;;;;;;;1.20;0.90;;;23.00;61.40;;;;;;6264940;22;20453;-86
2024/01/05 20:40:29;;;;;;;1.10;0.80;;;23.00;61.50;;;;;;6260264;23;20393;-90
2024/01/05 20:42:58;;;;;;;1.47;0.87;;;23.00;61.40;;;;;;6255159;22;20495;-89
2024/01/05 20:45:30;;;;;;;3.53;1.20;;;23.00;61.50;;;;;;6259226;22;20437;-90
2024/01/05 20:47:57;;;;;;;1.40;0.90;;;23.10;61.70;;;;;;6259611;23;20415;-89
2024/01/05 20:50:24;;;;;;;1.17;0.83;;;23.00;61.60;;;;;;6257778;23;20443;-88
2024/01/05 20:52:50;;;;;;;1.30;0.90;;;23.00;61.50;;;;;;6258646;23;20391;-88
2024/01/05 20:55:19;;;;;;;1.63;0.90;;;23.00;61.40;;;;;;6258456;22;20460;-88
2024/01/05 20:57:45;;;;;;;1.20;0.80;;;23.00;61.50;;;;;;6260186;22;20475;-89
2024/01/05 21:00:13;;;;;;;1.40;0.80;;;23.00;61.50;;;;;;6257850;23;20497;-89
2024/01/05 21:02:41;;;;;;;2.43;0.90;;;23.00;61.60;;;;;;6260193;23;20401;-89
2024/01/05 21:05:10;;;;;;;1.20;0.83;;;23.00;61.40;;;;;;6259586;23;20503;-88
2024/01/05 21:07:36;;;;;;;1.20;0.80;;;23.00;61.60;;;;;;6265148;23;20405;-88
2024/01/05 21:10:03;;;;;;;3.13;1.00;;;23.00;61.40;;;;;;6258773;22;20440;-89
2024/01/05 21:12:30;;;;;;;1.10;0.80;;;23.00;61.50;;;;;;6258893;22;20441;-88
2024/01/05 21:14:57;;;;;;;1.20;0.80;;;23.10;61.60;;;;;;6262503;23;20400;-88
2024/01/05 21:17:24;;;;;;;1.10;0.80;;;23.00;61.30;;;;;;6263450;22;20472;-89
2024/01/05 21:19:52;;;;;;;1.20;1.00;;;23.10;61.60;;;;;;6258540;23;20443;-89
2024/01/05 21:22:19;;;;;;;1.20;0.90;;;23.10;61.60;;;;;;6256389;23;20401;-89
2024/01/05 21:24:50;;;;;;;1.20;0.90;;;23.00;61.50;;;;;;6260758;23;20436;-91
2024/01/05 21:27:17;;;;;;;8.70;1.13;;;23.10;61.30;;;;;;6253470;23;20412;-88
2024/01/05 21:29:44;;;;;;;1.50;1.10;;;23.00;61.60;;;;;;6254041;23;20424;-92
2024/01/05 21:32:11;;;;;;;1.50;0.90;;;23.20;61.50;;;;;;6250912;23;20186;-95
2024/01/05 21:34:40;;;;;;;1.63;1.10;;;23.10;60.80;;;;;;6250434;23;20526;-91
2024/01/05 21:37:09;;;;;;;3.30;1.00;;;23.10;61.30;;;;;;6252038;23;20407;-90
2024/01/05 21:39:36;;;;;;;2.03;0.70;;;23.10;61.50;;;;;;6251191;23;20774;-90
2024/01/05 21:42:03;;;;;;;6.93;1.50;;;23.10;61.40;;;;;;6250410;23;20488;-90
2024/01/05 21:44:29;;;;;;;1.63;0.90;;;23.00;61.60;;;;;;6249243;23;20439;-95
2024/01/05 21:46:56;;;;;;;1.30;0.80;;;23.00;61.60;;;;;;6248744;23;20405;-90
2024/01/05 21:49:24;;;;;;;2.07;1.07;;;23.00;61.80;;;;;;6249207;23;20403;-89
2024/01/05 21:51:53;;;;;;;1.20;0.90;;;23.00;60.90;;;;;;6248903;23;20898;-91
2024/01/05 21:54:22;;;;;;;1.67;0.90;;;23.00;61.60;;;;;;6251386;23;20377;-91
2024/01/05 21:56:48;;;;;;;1.50;0.90;;;23.00;61.90;;;;;;6250133;23;20425;-90
2024/01/05 21:59:15;;;;;;;1.40;0.90;;;23.00;61.90;;;;;;6249698;23;20491;-90
2024/01/05 22:01:45;;;;;;;1.40;1.00;;;23.10;62.00;;;;;;6249230;23;20496;-90
2024/01/05 22:04:11;;;;;;;1.20;0.83;;;23.10;62.10;;;;;;6248389;23;20401;-88
2024/01/05 22:06:38;;;;;;;1.93;1.03;;;23.00;62.10;;;;;;6248037;23;20401;-88
2024/01/05 22:09:05;;;;;;;1.20;0.90;;;23.00;62.10;;;;;;6248530;23;20496;-88
2024/01/05 22:11:34;;;;;;;2.07;0.90;;;23.00;62.10;;;;;;6247432;23;20433;-89
2024/01/05 22:14:03;;;;;;;2.13;1.00;;;23.00;62.10;;;;;;6248724;23;20712;-88
2024/01/05 22:16:30;;;;;;;1.70;1.07;;;23.00;62.20;;;;;;6247955;23;20412;-89
2024/01/05 22:18:57;;;;;;;4.33;1.10;;;23.00;61.90;;;;;;6248131;23;20401;-89
2024/01/05 22:21:23;;;;;;;1.27;1.00;;;23.00;62.10;;;;;;6248799;23;20416;-88
2024/01/05 22:23:51;;;;;;;1.30;0.87;;;23.00;62.10;;;;;;6248203;23;20406;-88
2024/01/05 22:26:22;;;;;;;1.40;1.00;;;23.00;62.10;;;;;;6247770;23;20412;-90
2024/01/05 22:28:50;;;;;;;1.20;0.80;;;23.00;62.20;;;;;;6247219;23;20402;-90
2024/01/05 22:31:17;;;;;;;1.20;0.90;;;23.00;62.10;;;;;;6247673;23;20857;-89
2024/01/05 22:33:44;;;;;;;1.50;1.07;;;23.00;62.10;;;;;;6247221;23;20408;-88
2024/01/05 22:36:20;;;;;;;1.30;1.00;;;23.00;62.20;;;;;;6252987;23;20814;-92
2024/01/05 22:38:57;;;;;;;1.20;0.90;;;23.00;62.20;;;;;;6247701;22;20757;-92
2024/01/05 22:41:24;;;;;;;1.27;1.00;;;23.00;62.00;;;;;;6249794;23;20400;-92
2024/01/05 22:44:00;;;;;;;1.10;0.90;;;22.90;62.00;;;;;;6249338;23;20409;-92
2024/01/05 22:49:49;;;;;;;1.40;1.07;;;23.00;61.90;;;;;;6253022;23;20357;-92
2024/01/05 22:52:17;;;;;;;2.27;1.10;;;23.00;62.10;;;;;;6252491;22;20444;-92
2024/01/05 22:54:44;;;;;;;1.27;0.90;;;23.00;62.00;;;;;;6253273;23;20433;-94
2024/01/05 22:57:11;;;;;;;1.20;0.90;;;22.90;62.10;;;;;;6250907;23;20926;-91
2024/01/05 22:59:40;;;;;;;1.27;0.83;;;23.00;62.10;;;;;;6249139;23;20472;-89
2024/01/05 23:02:07;;;;;;;4.47;1.20;;;23.00;62.10;;;;;;6249726;23;20405;-90
2024/01/05 23:04:34;;;;;;;1.70;1.20;;;23.00;62.00;;;;;;6249057;23;20531;-90
2024/01/05 23:07:01;;;;;;;1.20;0.80;;;23.00;62.00;;;;;;6252834;23;20409;-94
2024/01/05 23:09:31;;;;;;;1.20;0.70;;;22.90;62.10;;;;;;6249469;23;20412;-89
2024/01/05 23:11:58;;;;;;;1.33;0.97;;;22.90;62.00;;;;;;6249581;23;20440;-90
2024/01/05 23:14:25;;;;;;;1.50;0.90;;;22.90;62.30;;;;;;6247576;23;20415;-93
2024/01/05 23:16:53;;;;;;;1.30;1.00;;;23.00;62.00;;;;;;6247036;23;20789;-89
2024/01/05 23:19:20;;;;;;;1.73;0.90;;;23.10;61.90;;;;;;6247782;23;20401;-90
2024/01/05 23:21:46;;;;;;;1.77;1.07;;;23.20;61.80;;;;;;6246599;23;20408;-88
2024/01/05 23:24:14;;;;;;;1.20;1.07;;;23.10;61.80;;;;;;6246880;23;20401;-88
2024/01/05 23:26:41;;;;;;;1.27;0.90;;;23.20;61.90;;;;;;6246033;23;20965;-88
2024/01/05 23:29:09;;;;;;;1.20;0.87;;;23.10;61.60;;;;;;6248889;23;20708;-88
2024/01/05 23:31:38;;;;;;;1.20;1.00;;;23.10;61.80;;;;;;6247130;23;20931;-88
2024/01/05 23:34:06;;;;;;;1.20;0.90;;;23.00;61.80;;;;;;6246518;23;20470;-88
2024/01/05 23:36:33;;;;;;;1.93;1.00;;;23.00;61.90;;;;;;6247980;23;20409;-88
2024/01/05 23:38:59;;;;;;;1.20;1.00;;;23.00;62.00;;;;;;6246421;23;20519;-88
2024/01/05 23:41:26;;;;;;;2.20;1.00;;;22.90;62.00;;;;;;6246797;23;20504;-88
2024/01/05 23:43:53;;;;;;;1.20;1.00;;;22.90;62.10;;;;;;6246241;23;20407;-88
2024/01/05 23:46:20;;;;;;;1.30;1.00;;;22.90;62.10;;;;;;6246250;23;20405;-88
2024/01/05 23:48:47;;;;;;;1.20;0.80;;;22.80;62.10;;;;;;6247206;23;20736;-88
2024/01/05 23:51:15;;;;;;;1.20;0.90;;;22.80;62.30;;;;;;6245667;23;20523;-88
2024/01/05 23:53:42;;;;;;;1.30;1.07;;;22.80;62.30;;;;;;6245845;23;20727;-88
2024/01/05 23:56:10;;;;;;;1.37;0.90;;;22.80;62.30;;;;;;6245008;23;20394;-88
2024/01/05 23:58:37;;;;;;;1.27;0.90;;;22.80;62.50;;;;;;6246534;23;20432;-88
